createdAt,value
2019-04-26T00:00:10.189Z,10.93
2019-04-26T00:02:41.062Z,13.88
2019-04-26T00:05:10.472Z,13.55
2019-04-26T00:07:39.612Z,16.95
2019-04-26T00:10:10.511Z,23.45
2019-04-26T00:12:58.645Z,13.38
2019-04-26T00:15:32.446Z,17.25
2019-04-26T00:18:03.340Z,15.00
2019-04-26T00:20:33.207Z,14.40
2019-04-26T00:23:02.103Z,15.45
2019-04-26T00:25:31.018Z,17.82
2019-04-26T00:27:59.758Z,19.23
2019-04-26T00:30:28.630Z,17.48
2019-04-26T00:32:57.379Z,15.70
2019-04-26T00:35:26.138Z,10.78
2019-04-26T00:37:54.827Z,15.00
2019-04-26T00:40:23.671Z,13.78
2019-04-26T00:42:52.918Z,12.03
2019-04-26T00:45:22.948Z,15.35
2019-04-26T00:47:52.106Z,13.70
2019-04-26T00:50:21.380Z,22.07
2019-04-26T00:52:51.123Z,17.00
2019-04-26T00:55:21.935Z,14.90
2019-04-26T00:57:51.495Z,21.45
2019-04-26T01:00:21.578Z,15.88
2019-04-26T01:02:52.096Z,19.52
2019-04-26T01:05:21.015Z,15.93
2019-04-26T01:07:51.417Z,19.42
2019-04-26T01:10:20.253Z,23.70
2019-04-26T01:12:49.110Z,20.75
2019-04-26T01:15:19.995Z,22.05
2019-04-26T01:17:48.446Z,18.70
2019-04-26T01:20:18.927Z,21.70
2019-04-26T01:22:49.911Z,16.73
2019-04-26T01:25:44.257Z,19.92
2019-04-26T01:28:18.085Z,21.42
2019-04-26T01:30:46.684Z,19.57
2019-04-26T01:33:15.614Z,29.25
2019-04-26T01:35:44.601Z,30.70
2019-04-26T01:38:15.475Z,31.60
2019-04-26T01:40:45.932Z,30.97
2019-04-26T01:43:31.315Z,43.78
2019-04-26T01:46:18.286Z,43.05
2019-04-26T01:48:55.967Z,33.80
2019-04-26T01:51:36.526Z,35.05
2019-04-26T01:54:05.430Z,34.58
2019-04-26T01:56:36.507Z,51.90
2019-04-26T01:59:07.447Z,35.80
2019-04-26T02:01:38.207Z,42.73
2019-04-26T02:04:07.134Z,40.63
2019-04-26T02:06:36.159Z,58.58
2019-04-26T02:09:08.101Z,56.18
2019-04-26T02:11:37.490Z,55.30
2019-04-26T02:14:06.409Z,51.80
2019-04-26T02:16:35.452Z,57.95
2019-04-26T02:19:04.362Z,58.28
2019-04-26T02:21:34.846Z,32.98
2019-04-26T02:24:17.196Z,56.08
2019-04-26T02:26:46.743Z,58.00
2019-04-26T02:29:18.511Z,54.60
2019-04-26T02:31:50.283Z,41.70
2019-04-26T02:34:19.103Z,53.42
2019-04-26T02:36:57.749Z,44.33
2019-04-26T02:39:21.429Z,50.88
2019-04-26T02:41:52.784Z,47.50
2019-04-26T02:44:26.632Z,37.42
2019-04-26T02:49:56.621Z,43.42
2019-04-26T02:52:40.269Z,41.92
2019-04-26T02:55:14.948Z,41.98
2019-04-26T03:00:16.312Z,39.33
2019-04-26T03:02:48.428Z,43.10
2019-04-26T03:05:18.227Z,49.77
2019-04-26T03:07:52.903Z,50.73
2019-04-26T03:12:53.300Z,60.30
2019-04-26T03:15:30.351Z,44.77
2019-04-26T03:18:19.487Z,39.78
2019-04-26T03:20:51.245Z,40.75
2019-04-26T03:23:55.612Z,56.85
2019-04-26T03:26:24.971Z,47.17
2019-04-26T03:28:59.511Z,46.95
2019-04-26T03:31:33.886Z,39.30
2019-04-26T03:34:24.360Z,28.60
2019-04-26T03:37:20.861Z,27.35
2019-04-26T03:39:55.987Z,39.55
2019-04-26T03:42:35.182Z,35.48
2019-04-26T03:45:23.289Z,38.67
2019-04-26T03:47:57.929Z,28.10
2019-04-26T03:53:12.608Z,26.02
2019-04-26T03:55:46.036Z,18.40
2019-04-26T03:58:37.769Z,26.35
2019-04-26T04:01:10.278Z,25.72
2019-04-26T04:03:58.170Z,16.57
2019-04-26T04:06:30.821Z,17.75
2019-04-26T04:09:08.174Z,18.82
2019-04-26T04:11:47.389Z,16.70
2019-04-26T04:14:37.754Z,11.53
2019-04-26T04:17:16.921Z,17.32
2019-04-26T04:20:13.744Z,14.75
2019-04-26T04:22:47.325Z,12.90
2019-04-26T04:25:30.874Z,13.20
2019-04-26T04:28:03.444Z,11.30
2019-04-26T04:30:49.028Z,15.60
2019-04-26T04:33:24.005Z,12.90
2019-04-26T04:35:55.865Z,16.10
2019-04-26T04:38:40.849Z,9.88
2019-04-26T04:41:29.304Z,9.48
2019-04-26T04:44:26.696Z,12.53
2019-04-26T04:47:03.036Z,15.08
2019-04-26T04:49:54.027Z,11.40
2019-04-26T04:52:37.538Z,13.10
2019-04-26T04:55:09.283Z,12.33
2019-04-26T04:57:58.986Z,10.70
2019-04-26T05:00:49.298Z,16.30
2019-04-26T05:03:42.336Z,17.48
2019-04-26T05:06:31.535Z,9.28
2019-04-26T05:09:09.146Z,12.23
2019-04-26T05:11:44.835Z,11.05
2019-04-26T05:14:29.185Z,10.45
2019-04-26T05:17:03.918Z,10.23
2019-04-26T05:22:47.227Z,16.55
2019-04-26T05:25:41.573Z,12.85
2019-04-26T05:28:47.494Z,13.30
2019-04-26T05:31:31.819Z,16.48
2019-04-26T05:34:17.049Z,19.87
2019-04-26T05:36:52.658Z,13.18
2019-04-26T05:39:27.611Z,12.47
2019-04-26T05:42:18.863Z,14.85
2019-04-26T05:45:11.408Z,14.25
2019-04-26T05:48:08.255Z,14.50
2019-04-26T05:50:39.441Z,18.87
2019-04-26T05:53:18.719Z,18.67
2019-04-26T05:56:08.311Z,17.98
2019-04-26T05:58:45.918Z,20.35
2019-04-26T06:01:46.070Z,28.02
2019-04-26T06:04:31.213Z,25.27
2019-04-26T06:10:04.874Z,35.35
2019-04-26T06:12:41.158Z,28.07
2019-04-26T06:15:20.401Z,34.35
2019-04-26T06:18:08.239Z,37.20
2019-04-26T06:20:42.827Z,38.15
2019-04-26T06:23:14.672Z,39.03
2019-04-26T06:26:07.527Z,45.05
2019-04-26T06:28:56.348Z,47.70
2019-04-26T06:31:28.142Z,34.18
2019-04-26T06:34:08.740Z,50.23
2019-04-26T06:36:48.171Z,51.73
2019-04-26T06:39:24.530Z,51.00
2019-04-26T06:42:12.792Z,33.98
2019-04-26T06:45:26.331Z,55.17
2019-04-26T06:48:18.680Z,62.40
2019-04-26T06:51:08.565Z,64.85
2019-04-26T06:53:40.644Z,63.05
2019-04-26T06:56:54.036Z,64.35
2019-04-26T06:59:46.677Z,49.23
2019-04-26T07:02:18.512Z,53.42
2019-04-26T07:04:56.397Z,81.30
2019-04-26T07:07:40.047Z,62.10
2019-04-26T07:10:28.089Z,67.03
2019-04-26T07:13:34.072Z,58.90
2019-04-26T07:16:22.423Z,53.00
2019-04-26T07:19:19.501Z,47.30
2019-04-26T07:22:34.767Z,57.45
2019-04-26T07:25:33.679Z,69.72
2019-04-26T07:28:17.415Z,52.25
2019-04-26T07:30:55.179Z,57.08
2019-04-26T07:33:43.337Z,54.58
2019-04-26T07:36:29.588Z,53.98
2019-04-26T07:39:19.881Z,62.85
2019-04-26T07:42:21.142Z,47.43
2019-04-26T07:45:01.990Z,48.40
2019-04-26T07:47:54.087Z,43.92
2019-04-26T07:50:53.002Z,51.88
2019-04-26T07:53:42.254Z,49.45
2019-04-26T07:56:19.258Z,59.70
2019-04-26T07:58:59.647Z,64.77
2019-04-26T08:01:50.778Z,52.00
2019-04-26T08:04:24.186Z,48.95
2019-04-26T08:06:58.639Z,60.63
2019-04-26T08:09:30.423Z,63.87
2019-04-26T08:12:06.076Z,55.52
2019-04-26T08:14:51.355Z,59.77
2019-04-26T08:17:39.233Z,56.68
2019-04-26T08:20:18.440Z,64.12
2019-04-26T08:22:52.282Z,55.52
2019-04-26T08:25:24.186Z,56.48
2019-04-26T08:27:56.197Z,53.58
2019-04-26T08:30:32.140Z,56.92
2019-04-26T08:33:07.811Z,44.38
2019-04-26T08:35:36.387Z,47.33
2019-04-26T08:38:13.658Z,39.27
2019-04-26T08:40:41.220Z,55.12
2019-04-26T08:43:13.901Z,53.35
2019-04-26T08:46:14.567Z,55.12
2019-04-26T08:48:49.731Z,45.28
2019-04-26T08:51:21.880Z,47.93
2019-04-26T08:53:53.280Z,55.95
2019-04-26T08:56:33.870Z,50.38
2019-04-26T08:59:11.583Z,46.50
2019-04-26T09:01:45.482Z,39.95
2019-04-26T09:04:25.619Z,57.10
2019-04-26T09:07:00.765Z,45.38
2019-04-26T09:09:32.560Z,36.75
2019-04-26T09:12:08.184Z,39.67
2019-04-26T09:14:37.319Z,40.75
2019-04-26T09:17:06.651Z,33.15
2019-04-26T09:19:35.547Z,28.85
2019-04-26T09:22:12.731Z,38.73
2019-04-26T09:24:49.866Z,37.98
2019-04-26T09:27:22.935Z,37.63
2019-04-26T09:29:53.331Z,32.20
2019-04-26T09:32:24.177Z,35.15
2019-04-26T09:34:54.249Z,37.93
2019-04-26T09:37:23.185Z,40.95
2019-04-26T09:39:52.042Z,26.62
2019-04-26T09:42:22.908Z,35.52
2019-04-26T09:45:02.076Z,33.78
2019-04-26T09:47:38.102Z,32.48
2019-04-26T09:50:11.293Z,42.73
2019-04-26T09:52:50.452Z,26.52
2019-04-26T09:55:19.209Z,28.73
2019-04-26T09:57:48.077Z,30.57
2019-04-26T10:00:19.175Z,31.12
2019-04-26T10:02:48.000Z,34.65
2019-04-26T10:05:17.698Z,40.52
2019-04-26T10:07:47.350Z,31.85
2019-04-26T10:10:25.670Z,31.87
2019-04-26T10:13:14.917Z,32.95
2019-04-26T10:15:58.131Z,32.85
2019-04-26T10:18:26.392Z,29.52
2019-04-26T10:20:55.153Z,23.05
2019-04-26T10:23:23.910Z,25.35
2019-04-26T10:25:53.651Z,34.30
2019-04-26T10:28:22.590Z,32.53
2019-04-26T10:30:51.597Z,27.75
2019-04-26T10:33:20.416Z,31.48
2019-04-26T10:35:52.581Z,30.72
2019-04-26T10:38:23.679Z,24.87
2019-04-26T10:40:50.040Z,32.78
2019-04-26T10:43:18.786Z,29.77
2019-04-26T10:45:53.562Z,31.73
2019-04-26T10:48:18.377Z,24.37
2019-04-26T10:50:47.307Z,37.35
2019-04-26T10:53:25.752Z,33.67
2019-04-26T10:55:56.041Z,32.03
2019-04-26T10:58:26.431Z,41.18
2019-04-26T11:01:02.368Z,32.53
2019-04-26T11:03:31.202Z,31.65
2019-04-26T11:05:59.932Z,35.13
2019-04-26T11:08:28.774Z,33.30
2019-04-26T11:10:57.674Z,27.67
2019-04-26T11:13:26.551Z,32.85
2019-04-26T11:15:55.453Z,28.05
2019-04-26T11:18:27.739Z,28.67
2019-04-26T11:20:54.853Z,24.52
2019-04-26T11:23:23.658Z,28.62
2019-04-26T11:25:52.545Z,21.87
2019-04-26T11:28:22.864Z,26.30
2019-04-26T11:30:52.519Z,29.63
2019-04-26T11:33:22.435Z,30.92
2019-04-26T11:35:51.231Z,29.92
2019-04-26T11:38:21.733Z,31.00
2019-04-26T11:41:04.973Z,25.40
2019-04-26T11:43:21.089Z,20.48
2019-04-26T11:45:50.557Z,22.65
2019-04-26T11:48:19.558Z,21.02
2019-04-26T11:50:51.824Z,27.00
2019-04-26T11:53:18.697Z,20.57
2019-04-26T11:55:47.506Z,28.20
2019-04-26T11:58:17.769Z,28.20
2019-04-26T12:00:48.371Z,31.25
2019-04-26T12:03:17.129Z,28.27
2019-04-26T12:05:47.594Z,26.62
2019-04-26T12:08:17.988Z,26.87
2019-04-26T12:10:46.922Z,28.52
2019-04-26T12:13:15.747Z,26.57
2019-04-26T12:15:45.413Z,27.13
2019-04-26T12:18:14.346Z,29.55
2019-04-26T12:20:43.225Z,24.67
2019-04-26T12:23:13.661Z,29.52
2019-04-26T12:25:43.583Z,27.65
2019-04-26T12:28:13.121Z,23.25
2019-04-26T12:30:41.968Z,30.10
2019-04-26T12:33:10.749Z,18.65
2019-04-26T12:35:39.579Z,24.67
2019-04-26T12:38:08.378Z,15.80
2019-04-26T12:40:37.331Z,25.95
2019-04-26T12:43:06.228Z,19.80
2019-04-26T12:45:52.892Z,20.12
2019-04-26T12:48:23.274Z,20.62
2019-04-26T12:50:52.208Z,14.13
2019-04-26T12:53:21.109Z,21.23
2019-04-26T12:55:53.236Z,22.70
2019-04-26T12:58:21.905Z,21.00
2019-04-26T13:00:54.219Z,21.10
2019-04-26T13:03:24.936Z,20.25
2019-04-26T13:05:57.670Z,25.82
2019-04-26T13:08:22.382Z,17.87
2019-04-26T13:10:55.691Z,17.02
2019-04-26T13:13:38.070Z,29.10
2019-04-26T13:16:11.405Z,20.08
2019-04-26T13:18:41.134Z,20.25
2019-04-26T13:21:10.937Z,19.40
2019-04-26T13:23:39.765Z,22.15
2019-04-26T13:26:08.691Z,13.30
2019-04-26T13:28:37.598Z,18.23
2019-04-26T13:31:06.554Z,13.28
2019-04-26T13:33:35.379Z,11.85
2019-04-26T13:36:04.568Z,15.35
2019-04-26T13:38:33.431Z,20.23
2019-04-26T13:41:04.334Z,17.00
2019-04-26T13:43:32.894Z,13.10
2019-04-26T13:46:06.107Z,19.15
2019-04-26T13:48:43.683Z,13.22
2019-04-26T13:51:17.237Z,18.73
2019-04-26T13:53:46.075Z,13.00
2019-04-26T13:56:15.004Z,15.75
2019-04-26T13:58:43.955Z,23.90
2019-04-26T14:01:14.490Z,13.98
2019-04-26T14:03:43.467Z,10.48
2019-04-26T14:06:12.398Z,12.63
2019-04-26T14:08:41.236Z,9.88
2019-04-26T14:11:10.045Z,10.35
2019-04-26T14:13:38.979Z,8.73
2019-04-26T14:16:07.880Z,7.08
2019-04-26T14:18:39.092Z,9.38
2019-04-26T14:21:10.898Z,5.20
2019-04-26T14:23:51.082Z,4.17
2019-04-26T14:26:21.929Z,7.80
2019-04-26T14:28:54.308Z,6.12
2019-04-26T14:31:21.622Z,6.10
2019-04-26T14:33:51.975Z,17.02
2019-04-26T14:36:22.650Z,8.75
2019-04-26T14:38:51.448Z,6.25
2019-04-26T14:41:22.576Z,11.65
2019-04-26T14:43:52.613Z,9.53
2019-04-26T14:46:23.018Z,5.30
2019-04-26T14:49:01.400Z,8.45
2019-04-26T14:51:22.618Z,5.70
2019-04-26T14:53:51.520Z,9.58
2019-04-26T14:56:20.440Z,11.88
2019-04-26T14:58:49.364Z,13.98
2019-04-26T15:01:35.001Z,9.73
2019-04-26T15:04:19.686Z,9.03
2019-04-26T15:06:51.978Z,11.28
2019-04-26T15:09:29.729Z,8.78
2019-04-26T15:11:57.034Z,5.72
2019-04-26T15:14:22.896Z,6.40
2019-04-26T15:16:51.832Z,8.05
2019-04-26T15:19:22.502Z,6.50
2019-04-26T15:21:52.329Z,6.12
2019-04-26T15:24:22.656Z,9.53
2019-04-26T15:26:51.648Z,8.60
2019-04-26T15:29:21.268Z,9.50
2019-04-26T15:31:53.654Z,6.12
2019-04-26T15:34:23.618Z,4.97
2019-04-26T15:36:55.615Z,4.47
2019-04-26T15:39:26.011Z,3.55
2019-04-26T15:41:56.492Z,4.72
2019-04-26T15:44:28.372Z,7.28
2019-04-26T15:46:58.974Z,9.70
2019-04-26T15:49:34.705Z,6.42
2019-04-26T15:52:02.737Z,6.10
2019-04-26T15:54:32.367Z,5.47
2019-04-26T15:57:02.159Z,3.12
2019-04-26T15:59:32.588Z,4.97
2019-04-26T16:02:02.481Z,8.35
2019-04-26T16:04:32.413Z,3.17
2019-04-26T16:07:02.409Z,2.45
2019-04-26T16:09:32.466Z,4.00
2019-04-26T16:12:03.379Z,4.92
2019-04-26T16:14:36.553Z,3.85
2019-04-26T16:17:06.412Z,3.25
2019-04-26T16:19:33.218Z,2.60
2019-04-26T16:22:02.981Z,5.80
2019-04-26T16:24:34.237Z,3.00
2019-04-26T16:27:02.794Z,4.17
2019-04-26T16:29:50.885Z,5.03
2019-04-26T16:32:35.807Z,3.08
2019-04-26T16:35:06.467Z,1.98
2019-04-26T16:37:35.589Z,1.67
2019-04-26T16:40:07.761Z,2.15
2019-04-26T16:42:37.826Z,1.55
2019-04-26T16:45:09.888Z,3.08
2019-04-26T16:47:44.996Z,3.27
2019-04-26T16:50:09.463Z,1.52
2019-04-26T16:55:18.230Z,3.80
2019-04-26T16:57:43.770Z,2.70
2019-04-26T17:00:10.416Z,1.25
2019-04-26T17:00:45.297Z,6.08
2019-04-26T17:02:39.582Z,6.17
2019-04-26T17:05:17.712Z,6.25
2019-04-26T17:07:39.966Z,2.55
2019-04-26T17:10:08.844Z,3.05
2019-04-26T17:12:37.756Z,4.53
2019-04-26T17:15:07.838Z,1.90
2019-04-26T17:17:41.174Z,2.15
2019-04-26T17:20:10.908Z,1.42
2019-04-26T17:23:00.822Z,1.75
2019-04-26T17:25:34.853Z,5.58
2019-04-26T17:28:03.753Z,2.87
2019-04-26T17:30:40.801Z,4.45
2019-04-26T17:33:03.225Z,3.75
2019-04-26T17:35:32.774Z,4.53
2019-04-26T17:38:04.999Z,2.95
2019-04-26T17:40:36.298Z,1.55
2019-04-26T17:43:05.407Z,2.25
2019-04-26T17:45:36.346Z,1.95
2019-04-26T17:48:06.573Z,4.10
2019-04-26T17:50:38.984Z,3.80
2019-04-26T17:53:10.691Z,1.42
2019-04-26T17:55:38.326Z,2.60
2019-04-26T17:58:12.549Z,1.90
2019-04-26T18:00:46.002Z,1.35
2019-04-26T18:03:13.130Z,4.55
2019-04-26T18:05:50.014Z,3.52
2019-04-26T18:08:31.428Z,7.45
2019-04-26T18:10:42.758Z,1.07
2019-04-26T18:13:16.398Z,1.22
2019-04-26T18:15:46.941Z,4.15
2019-04-26T18:18:19.627Z,4.42
2019-04-26T18:20:50.100Z,3.72
2019-04-26T18:23:23.328Z,4.03
2019-04-26T18:25:52.717Z,2.72
2019-04-26T18:28:22.767Z,1.40
2019-04-26T18:30:53.151Z,1.17
2019-04-26T18:33:25.943Z,5.85
2019-04-26T18:35:57.587Z,3.25
2019-04-26T18:38:26.655Z,2.37
2019-04-26T18:41:01.010Z,1.57
2019-04-26T18:43:26.157Z,1.82
2019-04-26T18:46:01.114Z,5.33
2019-04-26T18:48:27.088Z,2.45
2019-04-26T18:50:56.076Z,5.58
2019-04-26T18:53:39.461Z,2.00
2019-04-26T18:56:07.588Z,2.60
2019-04-26T18:58:37.999Z,3.17
2019-04-26T19:01:10.136Z,5.42
2019-04-26T19:03:38.995Z,3.25
2019-04-26T19:06:07.827Z,10.80
2019-04-26T19:08:45.476Z,4.65
2019-04-26T19:11:07.577Z,4.08
2019-04-26T19:13:56.339Z,2.08
2019-04-26T19:16:26.536Z,1.20
2019-04-26T19:19:08.819Z,3.83
2019-04-26T19:21:40.570Z,2.30
2019-04-26T19:24:17.302Z,4.55
2019-04-26T19:26:44.228Z,4.25
2019-04-26T19:29:18.065Z,4.08
2019-04-26T19:31:42.969Z,3.15
2019-04-26T19:34:11.889Z,4.45
2019-04-26T19:36:42.086Z,3.50
2019-04-26T19:39:22.786Z,1.92
2019-04-26T19:41:52.002Z,1.80
2019-04-26T19:44:19.030Z,2.87
2019-04-26T19:47:06.861Z,5.28
2019-04-26T19:49:43.170Z,2.17
2019-04-26T19:52:24.889Z,2.25
2019-04-26T19:54:59.135Z,3.05
2019-04-26T19:57:39.090Z,2.60
2019-04-26T20:00:09.594Z,4.72
2019-04-26T20:02:39.264Z,1.77
2019-04-26T20:05:09.446Z,5.40
2019-04-26T20:07:41.622Z,7.45
2019-04-26T20:10:16.729Z,3.72
2019-04-26T20:12:47.700Z,7.58
2019-04-26T20:15:26.541Z,5.58
2019-04-26T20:17:59.278Z,3.35
2019-04-26T20:20:23.822Z,5.67
2019-04-26T20:22:54.331Z,3.08
2019-04-26T20:25:29.943Z,4.70
2019-04-26T20:30:42.213Z,7.65
2019-04-26T20:33:12.204Z,3.72
2019-04-26T20:35:43.822Z,5.35
2019-04-26T20:38:15.991Z,4.60
2019-04-26T20:44:03.134Z,2.00
2019-04-26T20:49:32.166Z,10.23
2019-04-26T20:52:16.549Z,2.30
2019-04-26T20:54:59.611Z,6.47
2019-04-26T20:57:34.386Z,4.92
2019-04-26T21:11:54.470Z,3.95
2019-04-26T21:14:29.333Z,4.45
2019-04-26T21:17:02.032Z,11.68
2019-04-26T21:25:27.782Z,19.32
2019-04-26T21:34:22.113Z,2.85
2019-04-26T21:42:55.319Z,6.33
2019-04-26T21:51:16.310Z,5.15
2019-04-26T21:53:52.998Z,20.05
2019-04-26T21:56:33.892Z,13.45
2019-04-26T21:59:24.353Z,12.40
2019-04-26T22:01:59.105Z,7.97
2019-04-26T22:04:49.738Z,18.02
2019-04-26T22:07:34.981Z,13.13
2019-04-26T22:10:09.342Z,9.75
2019-04-26T22:12:50.452Z,12.00
2019-04-26T22:15:45.471Z,12.00
2019-04-26T22:18:28.765Z,15.85
2019-04-26T22:21:16.882Z,9.03
2019-04-26T22:23:58.973Z,8.18
2019-04-26T22:26:34.019Z,16.23
2019-04-26T22:29:14.213Z,7.87
2019-04-26T22:32:03.964Z,7.30
2019-04-26T22:37:41.341Z,10.43
2019-04-26T22:40:19.949Z,10.20
2019-04-26T22:45:59.206Z,9.78
2019-04-26T22:48:54.874Z,9.68
2019-04-26T22:51:32.922Z,5.97
2019-04-26T22:54:06.399Z,5.35
2019-04-26T22:56:41.414Z,3.62
2019-04-26T22:59:19.052Z,8.65
2019-04-26T23:05:06.153Z,5.17
2019-04-26T23:07:40.036Z,3.35
2019-04-26T23:22:44.249Z,4.35
2019-04-26T23:30:55.304Z,3.50
2019-04-26T23:57:02.918Z,6.47
2019-04-26T23:59:38.200Z,9.53
